createdAt,value
2022-09-17T00:02:59.164Z,919
2022-09-17T00:08:17.799Z,893
2022-09-17T00:13:35.792Z,934
2022-09-17T00:18:54.225Z,909
2022-09-17T00:24:12.823Z,898
2022-09-17T00:29:31.071Z,887
2022-09-17T00:34:49.517Z,919
2022-09-17T00:40:08.132Z,926
2022-09-17T00:45:26.645Z,920
2022-09-17T00:50:45.355Z,903
2022-09-17T00:56:03.935Z,905
2022-09-17T01:01:21.996Z,891
2022-09-17T01:06:40.659Z,889
2022-09-17T01:11:59.221Z,865
2022-09-17T01:17:17.489Z,841
2022-09-17T01:22:35.933Z,805
2022-09-17T01:27:54.524Z,794
2022-09-17T01:33:12.804Z,823
2022-09-17T01:38:30.964Z,831
2022-09-17T01:43:49.801Z,801
2022-09-17T01:49:07.840Z,793
2022-09-17T01:54:25.968Z,808
2022-09-17T01:59:44.813Z,851
2022-09-17T02:05:03.371Z,994
2022-09-17T02:10:21.806Z,938
2022-09-17T02:15:40.373Z,904
2022-09-17T02:20:58.685Z,993
2022-09-17T02:26:16.829Z,983
2022-09-17T02:31:35.765Z,916
2022-09-17T02:36:54.251Z,946
2022-09-17T02:42:12.130Z,962
2022-09-17T02:47:30.987Z,844
2022-09-17T02:52:49.000Z,836
2022-09-17T02:58:07.437Z,841
2022-09-17T03:03:26.280Z,793
2022-09-17T03:08:44.554Z,765
2022-09-17T03:14:02.990Z,777
2022-09-17T03:19:21.547Z,783
2022-09-17T03:24:40.105Z,763
2022-09-17T03:29:58.514Z,759
2022-09-17T03:35:17.385Z,780
2022-09-17T03:40:35.464Z,763
2022-09-17T03:45:53.745Z,778
2022-09-17T03:51:12.283Z,769
2022-09-17T03:56:30.575Z,764
2022-09-17T04:01:48.923Z,782
2022-09-17T04:07:07.786Z,791
2022-09-17T04:12:26.075Z,776
2022-09-17T04:17:44.818Z,778
2022-09-17T04:23:03.638Z,794
2022-09-17T04:28:22.176Z,912
2022-09-17T04:33:40.337Z,870
2022-09-17T04:38:58.345Z,789
2022-09-17T04:44:16.357Z,781
2022-09-17T04:49:34.515Z,766
2022-09-17T04:54:52.788Z,758
2022-09-17T05:00:11.120Z,748
2022-09-17T05:05:29.802Z,747
2022-09-17T05:10:48.369Z,740
2022-09-17T05:16:06.939Z,748
2022-09-17T05:21:25.559Z,752
2022-09-17T05:26:44.108Z,746
2022-09-17T05:32:02.421Z,735
2022-09-17T05:37:20.546Z,751
2022-09-17T05:42:39.388Z,757
2022-09-17T05:47:57.409Z,722
2022-09-17T05:53:15.838Z,712
2022-09-17T05:58:34.423Z,706
2022-09-17T06:03:52.729Z,708
2022-09-17T06:09:11.416Z,744
2022-09-17T06:14:30.275Z,726
2022-09-17T06:19:48.551Z,721
2022-09-17T06:25:06.427Z,694
2022-09-17T06:30:25.014Z,654
2022-09-17T06:35:43.010Z,608
2022-09-17T06:41:01.450Z,562
2022-09-17T06:46:20.096Z,564
2022-09-17T06:51:38.699Z,542
2022-09-17T06:56:57.147Z,595
2022-09-17T07:02:15.774Z,563
2022-09-17T07:07:34.295Z,565
2022-09-17T07:12:52.727Z,569
2022-09-17T07:18:11.037Z,569
2022-09-17T07:23:29.039Z,553
2022-09-17T07:28:47.739Z,518
2022-09-17T07:34:06.022Z,507
2022-09-17T07:39:24.593Z,523
2022-09-17T07:44:43.046Z,555
2022-09-17T07:50:01.850Z,588
2022-09-17T07:55:20.673Z,622
2022-09-17T08:00:39.112Z,618
2022-09-17T08:05:57.693Z,578
2022-09-17T08:11:20.595Z,574
2022-09-17T08:17:13.792Z,717
2022-09-17T08:22:32.064Z,642
2022-09-17T08:27:50.086Z,602
2022-09-17T08:33:08.503Z,609
2022-09-17T08:38:26.802Z,607
2022-09-17T08:43:45.378Z,597
2022-09-17T08:49:03.512Z,591
2022-09-17T08:54:22.383Z,596
2022-09-17T08:59:40.702Z,583
2022-09-17T09:04:59.385Z,571
2022-09-17T09:10:17.384Z,575
2022-09-17T09:15:35.691Z,581
2022-09-17T09:20:54.444Z,579
2022-09-17T09:26:12.725Z,566
2022-09-17T09:31:31.064Z,549
2022-09-17T09:36:49.244Z,572
2022-09-17T09:42:07.800Z,594
2022-09-17T09:47:25.851Z,591
2022-09-17T09:52:44.263Z,552
2022-09-17T09:58:02.831Z,511
2022-09-17T10:03:21.262Z,520
2022-09-17T10:08:39.954Z,509
2022-09-17T10:13:58.270Z,510
2022-09-17T10:19:16.720Z,502
2022-09-17T10:24:35.170Z,474
2022-09-17T10:29:53.724Z,445
2022-09-17T10:35:11.739Z,432
2022-09-17T10:40:30.491Z,430
2022-09-17T10:45:48.906Z,422
2022-09-17T10:51:07.209Z,415
2022-09-17T10:56:25.656Z,414
2022-09-17T11:01:44.608Z,423
2022-09-17T11:07:02.962Z,448
2022-09-17T11:12:21.429Z,452
2022-09-17T11:17:39.969Z,450
2022-09-17T11:22:58.516Z,456
2022-09-17T11:28:17.453Z,459
2022-09-17T11:33:35.699Z,450
2022-09-17T11:38:53.984Z,446
2022-09-17T11:44:12.705Z,451
2022-09-17T11:49:31.572Z,451
2022-09-17T11:54:49.902Z,456
2022-09-17T12:00:08.622Z,459
2022-09-17T12:05:27.472Z,453
2022-09-17T12:10:46.063Z,458
2022-09-17T12:16:04.568Z,464
2022-09-17T12:21:23.171Z,471
2022-09-17T12:26:41.725Z,466
2022-09-17T12:32:00.452Z,472
2022-09-17T12:37:18.734Z,467
2022-09-17T12:42:37.298Z,452
2022-09-17T12:47:55.490Z,437
2022-09-17T12:53:13.750Z,442
2022-09-17T12:58:32.045Z,443
2022-09-17T13:03:50.201Z,448
2022-09-17T13:09:09.101Z,445
2022-09-17T13:14:27.168Z,452
2022-09-17T13:19:45.901Z,469
2022-09-17T13:25:04.707Z,454
2022-09-17T13:30:22.991Z,442
2022-09-17T13:35:41.714Z,442
2022-09-17T13:40:59.996Z,436
2022-09-17T13:46:18.349Z,446
2022-09-17T13:51:36.905Z,460
2022-09-17T13:56:55.474Z,459
2022-09-17T14:02:14.048Z,477
2022-09-17T14:07:32.253Z,485
2022-09-17T14:12:51.085Z,493
2022-09-17T14:18:09.678Z,519
2022-09-17T14:23:28.394Z,488
2022-09-17T14:28:46.939Z,496
2022-09-17T14:34:05.547Z,503
2022-09-17T14:39:23.939Z,488
2022-09-17T14:44:42.505Z,483
2022-09-17T14:50:00.545Z,461
2022-09-17T14:55:19.289Z,459
2022-09-17T15:00:37.820Z,468
2022-09-17T15:05:56.413Z,490
2022-09-17T15:11:15.106Z,492
2022-09-17T15:16:33.496Z,470
2022-09-17T15:21:52.100Z,492
2022-09-17T15:27:10.558Z,511
2022-09-17T15:32:28.826Z,499
2022-09-17T15:38:00.700Z,504
2022-09-17T15:43:41.740Z,526
2022-09-17T15:49:00.110Z,526
2022-09-17T15:54:19.023Z,589
2022-09-17T15:59:36.931Z,579
2022-09-17T16:04:55.490Z,567
2022-09-17T16:10:13.490Z,562
2022-09-17T16:15:31.648Z,523
2022-09-17T16:20:50.533Z,504
2022-09-17T16:26:08.563Z,500
2022-09-17T16:31:27.373Z,505
2022-09-17T16:36:45.705Z,664
2022-09-17T16:42:04.023Z,581
2022-09-17T16:47:22.797Z,553
2022-09-17T16:52:41.373Z,499
2022-09-17T16:57:59.427Z,502
2022-09-17T17:03:17.898Z,498
2022-09-17T17:08:36.977Z,513
2022-09-17T17:13:55.557Z,530
2022-09-17T17:19:14.000Z,547
2022-09-17T17:24:32.866Z,541
2022-09-17T17:29:51.137Z,564
2022-09-17T17:35:09.334Z,574
2022-09-17T17:40:28.067Z,550
2022-09-17T17:45:46.865Z,563
2022-09-17T17:51:05.028Z,583
2022-09-17T17:56:23.582Z,620
2022-09-17T18:01:41.711Z,612
2022-09-17T18:07:00.257Z,577
2022-09-17T18:12:18.673Z,523
2022-09-17T18:17:44.441Z,535
2022-09-17T18:23:02.609Z,542
2022-09-17T18:28:21.451Z,527
2022-09-17T18:33:39.737Z,503
2022-09-17T18:39:01.130Z,505
2022-09-17T18:45:15.046Z,517
2022-09-17T18:50:33.346Z,533
2022-09-17T18:55:51.818Z,531
2022-09-17T19:01:10.741Z,523
2022-09-17T19:06:29.313Z,551
2022-09-17T19:11:48.053Z,541
2022-09-17T19:17:06.915Z,561
2022-09-17T19:22:24.919Z,610
2022-09-17T19:27:43.377Z,616
2022-09-17T19:33:02.229Z,607
2022-09-17T19:38:20.231Z,601
2022-09-17T19:43:38.683Z,566
2022-09-17T19:48:56.687Z,555
2022-09-17T19:54:14.759Z,587
2022-09-17T19:59:33.178Z,672
2022-09-17T20:04:52.026Z,625
2022-09-17T20:10:10.330Z,687
2022-09-17T20:15:28.768Z,691
2022-09-17T20:20:47.601Z,713
2022-09-17T20:26:05.915Z,769
2022-09-17T20:31:24.351Z,713
2022-09-17T20:36:43.025Z,645
2022-09-17T20:42:01.298Z,634
2022-09-17T20:47:19.747Z,693
2022-09-17T20:52:38.319Z,721
2022-09-17T20:57:56.872Z,764
2022-09-17T21:03:15.318Z,777
2022-09-17T21:08:33.597Z,780
2022-09-17T21:13:51.598Z,805
2022-09-17T21:19:10.320Z,809
2022-09-17T21:24:28.917Z,816
2022-09-17T21:29:47.201Z,808
2022-09-17T21:35:05.392Z,830
2022-09-17T21:40:23.748Z,851
2022-09-17T21:45:42.306Z,890
2022-09-17T21:51:00.733Z,886
2022-09-17T21:56:19.312Z,871
2022-09-17T22:01:37.899Z,871
2022-09-17T22:06:55.863Z,870
2022-09-17T22:12:14.415Z,922
2022-09-17T22:17:32.701Z,983
2022-09-17T22:22:51.439Z,976
2022-09-17T22:28:20.873Z,977
2022-09-17T22:33:39.975Z,972
2022-09-17T22:38:58.313Z,969
2022-09-17T22:44:16.454Z,933
2022-09-17T22:49:35.080Z,924
2022-09-17T22:54:53.539Z,876
2022-09-17T23:00:12.101Z,854
2022-09-17T23:05:30.399Z,870
2022-09-17T23:10:48.853Z,873
2022-09-17T23:16:07.474Z,864
2022-09-17T23:21:25.991Z,864
2022-09-17T23:26:44.443Z,848
2022-09-17T23:32:02.975Z,867
2022-09-17T23:37:20.978Z,892
2022-09-17T23:42:39.420Z,897
2022-09-17T23:47:57.980Z,871
2022-09-17T23:53:16.271Z,860
2022-09-17T23:58:34.418Z,852
